Lady Washington — WAA2820 — position and weather

sailwx.info

Track history (hours):
 
Tides and Currents Weather Stations Pressure Air Temp Water Temp Dewpoint Dewpoint Depression Visibility Wind Speed Wind Dir Waves Ship Positions

Lady Washington (United States)

Ship's website: http://www.historicalseaport.org/LadyWashington.htm

Owner: GRAYS HARBOR HISTORICAL SEAPORT AUTHORIT, ABERDEEN, WA. More information available from US FCC via Universal Licensing System and Coast Guard Vessel Documentation Center.

Last reported at 2017-Sep-13 15:44 UTC. Time now 2017-Sep-22 17:03 UTC.
Position N 48°26' W 124°42'.
Warning: this ship's position is 9 days out of date.

Length 37 m.

Type: Sailing vessel. MMSI: 366945360.

Date/timePositionNaut miles runAvg speedWind from/ knotsBaromVisibWave heightAir tempDewpointWater temp
2017-Sep-13 15:44N 48°26' W 124°42'1 5.9
2017-Sep-13 15:29N 48°25' W 124°40'3 5.9
2017-Sep-13 15:00N 48°24' W 124°36'3 6.4
2017-Sep-13 14:30N 48°23' W 124°31'84 6.4
2017-Sep-13 01:16N 47°57' W 122°31'2 6.5
2017-Sep-13 01:00N 47°56' W 122°29'4 7.1
2017-Sep-13 00:30N 47°52' W 122°27'4 7.2
2017-Sep-13 00:00N 47°49' W 122°26'4 7.3
2017-Sep-12 23:30N 47°45' W 122°25'4 7.1
2017-Sep-12 23:00N 47°42' W 122°25'2 4.1
2017-Sep-12 22:30N 47°40' W 122°24'0 0.1
2017-Sep-12 22:00N 47°40' W 122°24'1 2.8
2017-Sep-12 21:30N 47°39' W 122°22'1 2.0
2017-Sep-12 20:59N 47°39' W 122°21'0 0.0
2017-Sep-12 20:29N 47°39' W 122°21'0 0.0
2017-Sep-12 19:59N 47°39' W 122°21'0 0.9
2017-Sep-12 19:30N 47°39' W 122°20'  
2017-Sep-06 02:11N 47°39' W 122°20'1 5.6
2017-Sep-06 02:00N 47°39' W 122°21'2 3.5
2017-Sep-06 01:28N 47°40' W 122°24'0 0.9
2017-Sep-06 00:58N 47°40' W 122°24'0 0.7
2017-Sep-06 00:30N 47°40' W 122°25'1 2.0
2017-Sep-06 00:00N 47°41' W 122°26'1 2.0
2017-Sep-05 23:30N 47°40' W 122°26'2 3.1
2017-Sep-05 23:00N 47°39' W 122°26'2 4.3
2017-Sep-05 22:30N 47°37' W 122°24'1 2.8
2017-Sep-05 22:00N 47°36' W 122°24'3 5.6
2017-Sep-05 21:30N 47°33' W 122°25'3 5.4
2017-Sep-05 21:00N 47°31' W 122°28'  
Track history (hours):
 
Tides and Currents Weather Stations Pressure Air Temp Water Temp Dewpoint Dewpoint Depression Visibility Wind Speed Wind Dir Waves Ship Positions

Lady Washington (United States)

Ship's website: http://www.historicalseaport.org/LadyWashington.htm

Owner: GRAYS HARBOR HISTORICAL SEAPORT AUTHORIT, ABERDEEN, WA. More information available from US FCC via Universal Licensing System and Coast Guard Vessel Documentation Center.

Last reported at 2017-Sep-13 15:44 UTC. Time now 2017-Sep-22 17:03 UTC.
Position N 48°26' W 124°42'.
Warning: this ship's position is 9 days out of date.

Length 37 m.

Type: Sailing vessel. MMSI: 366945360.

Date/timePositionNaut miles runAvg speedWind from/ knotsBaromVisibWave heightAir tempDewpointWater temp
2017-Sep-13 15:44N 48°26' W 124°42'1 5.9
2017-Sep-13 15:29N 48°25' W 124°40'3 5.9
2017-Sep-13 15:00N 48°24' W 124°36'3 6.4
2017-Sep-13 14:30N 48°23' W 124°31'84 6.4
2017-Sep-13 01:16N 47°57' W 122°31'2 6.5
2017-Sep-13 01:00N 47°56' W 122°29'4 7.1
2017-Sep-13 00:30N 47°52' W 122°27'4 7.2
2017-Sep-13 00:00N 47°49' W 122°26'4 7.3
2017-Sep-12 23:30N 47°45' W 122°25'4 7.1
2017-Sep-12 23:00N 47°42' W 122°25'2 4.1
2017-Sep-12 22:30N 47°40' W 122°24'0 0.1
2017-Sep-12 22:00N 47°40' W 122°24'1 2.8
2017-Sep-12 21:30N 47°39' W 122°22'1 2.0
2017-Sep-12 20:59N 47°39' W 122°21'0 0.0
2017-Sep-12 20:29N 47°39' W 122°21'0 0.0
2017-Sep-12 19:59N 47°39' W 122°21'0 0.9
2017-Sep-12 19:30N 47°39' W 122°20'  
2017-Sep-06 02:11N 47°39' W 122°20'1 5.6
2017-Sep-06 02:00N 47°39' W 122°21'2 3.5
2017-Sep-06 01:28N 47°40' W 122°24'0 0.9
2017-Sep-06 00:58N 47°40' W 122°24'0 0.7
2017-Sep-06 00:30N 47°40' W 122°25'1 2.0
2017-Sep-06 00:00N 47°41' W 122°26'1 2.0
2017-Sep-05 23:30N 47°40' W 122°26'2 3.1
2017-Sep-05 23:00N 47°39' W 122°26'2 4.3
2017-Sep-05 22:30N 47°37' W 122°24'1 2.8
2017-Sep-05 22:00N 47°36' W 122°24'3 5.6
2017-Sep-05 21:30N 47°33' W 122°25'3 5.4
2017-Sep-05 21:00N 47°31' W 122°28'  

Dump ship's entire track history